sensor_id;sensor_type;location;lat;lon;timestamp;pressure;altitude;pressure_sealevel;temperature;humidity
33454;BME280;39400;49.744;7.012;2023-04-27T00:01:45;96021.44;;;3.94;84.31
33454;BME280;39400;49.744;7.012;2023-04-27T00:04:10;96030.91;;;4.00;83.76
33454;BME280;39400;49.744;7.012;2023-04-27T00:06:36;96027.47;;;3.88;84.65
33454;BME280;39400;49.744;7.012;2023-04-27T00:09:01;96030.00;;;3.80;85.21
33454;BME280;39400;49.744;7.012;2023-04-27T00:11:26;96034.44;;;3.57;86.16
33454;BME280;39400;49.744;7.012;2023-04-27T00:13:52;96030.28;;;3.47;86.49
33454;BME280;39400;49.744;7.012;2023-04-27T00:16:17;96038.53;;;3.51;86.50
33454;BME280;39400;49.744;7.012;2023-04-27T00:18:42;96037.19;;;3.45;86.90
33454;BME280;39400;49.744;7.012;2023-04-27T00:21:08;96036.19;;;3.37;86.13
33454;BME280;39400;49.744;7.012;2023-04-27T00:23:34;96036.28;;;3.41;86.94
33454;BME280;39400;49.744;7.012;2023-04-27T00:25:59;96035.47;;;3.12;89.65
33454;BME280;39400;49.744;7.012;2023-04-27T00:28:24;96027.13;;;2.93;91.29
33454;BME280;39400;49.744;7.012;2023-04-27T00:30:50;96028.06;;;2.72;91.64
33454;BME280;39400;49.744;7.012;2023-04-27T00:33:16;96031.22;;;2.74;91.71
33454;BME280;39400;49.744;7.012;2023-04-27T00:35:41;96032.03;;;2.75;91.64
33454;BME280;39400;49.744;7.012;2023-04-27T00:38:06;96028.94;;;2.76;90.78
33454;BME280;39400;49.744;7.012;2023-04-27T00:40:32;96029.75;;;2.77;90.19
33454;BME280;39400;49.744;7.012;2023-04-27T00:42:57;96022.41;;;2.77;90.09
33454;BME280;39400;49.744;7.012;2023-04-27T00:45:24;96025.34;;;2.84;89.42
33454;BME280;39400;49.744;7.012;2023-04-27T00:47:49;96022.16;;;2.82;89.65
33454;BME280;39400;49.744;7.012;2023-04-27T00:50:19;96029.75;;;2.77;90.31
33454;BME280;39400;49.744;7.012;2023-04-27T00:52:51;96030.09;;;2.88;89.85
33454;BME280;39400;49.744;7.012;2023-04-27T00:55:16;96020.13;;;2.92;90.10
33454;BME280;39400;49.744;7.012;2023-04-27T00:57:42;96019.34;;;2.91;90.73
33454;BME280;39400;49.744;7.012;2023-04-27T01:00:09;96031.00;;;2.92;91.01
33454;BME280;39400;49.744;7.012;2023-04-27T01:02:35;96024.53;;;2.84;91.94
33454;BME280;39400;49.744;7.012;2023-04-27T01:05:01;96024.19;;;2.73;92.59
33454;BME280;39400;49.744;7.012;2023-04-27T01:07:26;96026.50;;;2.71;93.81
33454;BME280;39400;49.744;7.012;2023-04-27T01:09:52;96026.50;;;2.71;94.50
33454;BME280;39400;49.744;7.012;2023-04-27T01:12:17;96031.22;;;2.74;95.15
33454;BME280;39400;49.744;7.012;2023-04-27T01:14:42;96026.50;;;2.71;94.71
33454;BME280;39400;49.744;7.012;2023-04-27T01:17:08;96022.63;;;2.72;94.95
33454;BME280;39400;49.744;7.012;2023-04-27T01:19:36;96022.63;;;2.72;95.87
33454;BME280;39400;49.744;7.012;2023-04-27T01:22:01;96021.72;;;2.68;95.36
33454;BME280;39400;49.744;7.012;2023-04-27T01:24:27;96020.63;;;2.57;96.54
33454;BME280;39400;49.744;7.012;2023-04-27T01:26:52;96024.78;;;2.54;96.24
33454;BME280;39400;49.744;7.012;2023-04-27T01:29:17;96022.41;;;2.65;95.54
33454;BME280;39400;49.744;7.012;2023-04-27T01:31:43;96019.59;;;2.74;95.51
33454;BME280;39400;49.744;7.012;2023-04-27T01:34:08;96011.56;;;2.65;95.74
33454;BME280;39400;49.744;7.012;2023-04-27T01:36:34;96015.41;;;2.64;95.01
33454;BME280;39400;49.744;7.012;2023-04-27T01:38:59;96022.28;;;2.86;94.56
33454;BME280;39400;49.744;7.012;2023-04-27T01:41:25;96023.94;;;2.91;94.15
33454;BME280;39400;49.744;7.012;2023-04-27T01:43:50;96027.13;;;2.93;93.95
33454;BME280;39400;49.744;7.012;2023-04-27T01:46:15;96026.25;;;2.64;96.60
33454;BME280;39400;49.744;7.012;2023-04-27T01:48:41;96013.38;;;2.49;97.59
33454;BME280;39400;49.744;7.012;2023-04-27T01:51:06;96024.91;;;2.46;100.00
33454;BME280;39400;49.744;7.012;2023-04-27T01:53:32;96026.94;;;2.36;100.00
33454;BME280;39400;49.744;7.012;2023-04-27T01:55:57;96032.81;;;2.26;100.00
33454;BME280;39400;49.744;7.012;2023-04-27T01:58:23;96037.34;;;2.34;100.00
33454;BME280;39400;49.744;7.012;2023-04-27T02:00:48;96024.91;;;2.58;100.00
33454;BME280;39400;49.744;7.012;2023-04-27T02:03:13;96023.63;;;2.80;100.00
33454;BME280;39400;49.744;7.012;2023-04-27T02:05:39;96025.53;;;3.04;100.00
33454;BME280;39400;49.744;7.012;2023-04-27T02:08:04;96031.41;;;3.06;100.00
33454;BME280;39400;49.744;7.012;2023-04-27T02:10:29;96029.84;;;3.05;100.00
33454;BME280;39400;49.744;7.012;2023-04-27T02:12:55;96020.38;;;3.27;97.91
33454;BME280;39400;49.744;7.012;2023-04-27T02:15:20;96031.53;;;3.38;97.63
33454;BME280;39400;49.744;7.012;2023-04-27T02:17:45;96031.34;;;3.30;99.14
33454;BME280;39400;49.744;7.012;2023-04-27T02:20:11;96038.34;;;3.31;99.63
33454;BME280;39400;49.744;7.012;2023-04-27T02:22:41;96032.22;;;3.34;99.12
33454;BME280;39400;49.744;7.012;2023-04-27T02:25:07;96024.28;;;3.42;100.00
33454;BME280;39400;49.744;7.012;2023-04-27T02:27:32;96031.84;;;3.48;100.00
33454;BME280;39400;49.744;7.012;2023-04-27T02:29:57;96023.56;;;3.57;100.00
33454;BME280;39400;49.744;7.012;2023-04-27T02:32:23;96023.78;;;3.52;98.57
33454;BME280;39400;49.744;7.012;2023-04-27T02:34:48;96020.44;;;3.71;98.20
33454;BME280;39400;49.744;7.012;2023-04-27T02:37:13;96019.19;;;3.68;97.93
33454;BME280;39400;49.744;7.012;2023-04-27T02:39:39;96014.13;;;3.83;95.34
33454;BME280;39400;49.744;7.012;2023-04-27T02:42:05;96016.41;;;3.80;94.34
33454;BME280;39400;49.744;7.012;2023-04-27T02:44:30;96015.34;;;3.69;96.88
33454;BME280;39400;49.744;7.012;2023-04-27T02:46:56;96013.66;;;3.65;100.00
33454;BME280;39400;49.744;7.012;2023-04-27T02:49:21;96011.97;;;3.60;100.00
33454;BME280;39400;49.744;7.012;2023-04-27T02:51:48;96013.09;;;3.59;100.00
33454;BME280;39400;49.744;7.012;2023-04-27T02:54:13;96017.00;;;3.74;99.69
33454;BME280;39400;49.744;7.012;2023-04-27T02:56:39;96015.53;;;3.76;96.67
33454;BME280;39400;49.744;7.012;2023-04-27T02:59:04;96016.84;;;3.83;100.00
33454;BME280;39400;49.744;7.012;2023-04-27T03:01:29;96017.31;;;3.85;100.00
33454;BME280;39400;49.744;7.012;2023-04-27T03:03:55;96014.81;;;3.79;100.00
33454;BME280;39400;49.744;7.012;2023-04-27T03:06:20;96003.75;;;3.72;100.00
33454;BME280;39400;49.744;7.012;2023-04-27T03:08:45;96007.63;;;3.71;100.00
33454;BME280;39400;49.744;7.012;2023-04-27T03:11:11;96007.63;;;3.71;100.00
33454;BME280;39400;49.744;7.012;2023-04-27T03:13:36;96007.19;;;3.69;100.00
33454;BME280;39400;49.744;7.012;2023-04-27T03:16:01;96002.88;;;3.68;100.00
33454;BME280;39400;49.744;7.012;2023-04-27T03:18:27;96003.91;;;3.64;100.00
33454;BME280;39400;49.744;7.012;2023-04-27T03:20:52;96006.53;;;3.60;100.00
33454;BME280;39400;49.744;7.012;2023-04-27T03:23:17;96020.47;;;3.58;100.00
33454;BME280;39400;49.744;7.012;2023-04-27T03:25:43;96007.53;;;3.40;100.00
33454;BME280;39400;49.744;7.012;2023-04-27T03:28:08;96014.84;;;3.23;100.00
33454;BME280;39400;49.744;7.012;2023-04-27T03:30:33;96014.47;;;3.25;100.00
33454;BME280;39400;49.744;7.012;2023-04-27T03:32:59;96006.22;;;3.21;100.00
33454;BME280;39400;49.744;7.012;2023-04-27T03:35:24;96014.63;;;3.16;100.00
33454;BME280;39400;49.744;7.012;2023-04-27T03:37:49;96005.13;;;3.10;100.00
33454;BME280;39400;49.744;7.012;2023-04-27T03:40:15;96000.38;;;3.07;100.00
33454;BME280;39400;49.744;7.012;2023-04-27T03:42:40;95996.03;;;3.18;100.00
33454;BME280;39400;49.744;7.012;2023-04-27T03:45:07;95998.34;;;3.16;100.00
33454;BME280;39400;49.744;7.012;2023-04-27T03:47:32;96003.78;;;3.16;100.00
33454;BME280;39400;49.744;7.012;2023-04-27T03:49:58;96010.19;;;3.24;100.00
33454;BME280;39400;49.744;7.012;2023-04-27T03:52:23;96002.41;;;3.22;100.00
33454;BME280;39400;49.744;7.012;2023-04-27T03:54:48;96009.88;;;3.13;100.00
33454;BME280;39400;49.744;7.012;2023-04-27T03:57:14;96008.47;;;2.91;100.00
33454;BME280;39400;49.744;7.012;2023-04-27T03:59:39;96011.56;;;2.77;100.00
33454;BME280;39400;49.744;7.012;2023-04-27T04:02:04;96021.50;;;2.61;100.00
33454;BME280;39400;49.744;7.012;2023-04-27T04:04:30;96016.31;;;2.44;100.00
33454;BME280;39400;49.744;7.012;2023-04-27T04:06:55;96009.31;;;2.43;100.00
33454;BME280;39400;49.744;7.012;2023-04-27T04:09:21;96014.25;;;2.53;100.00
33454;BME280;39400;49.744;7.012;2023-04-27T04:11:47;96004.34;;;2.57;100.00
33454;BME280;39400;49.744;7.012;2023-04-27T04:14:14;96016.09;;;2.61;100.00
33454;BME280;39400;49.744;7.012;2023-04-27T04:16:39;96013.13;;;2.66;100.00
33454;BME280;39400;49.744;7.012;2023-04-27T04:19:04;96012.22;;;2.62;100.00
33454;BME280;39400;49.744;7.012;2023-04-27T04:21:30;96012.91;;;2.59;100.00
33454;BME280;39400;49.744;7.012;2023-04-27T04:23:55;96026.38;;;2.55;100.00
33454;BME280;39400;49.744;7.012;2023-04-27T04:26:21;96014.50;;;2.60;100.00
33454;BME280;39400;49.744;7.012;2023-04-27T04:28:46;96021.28;;;2.66;100.00
33454;BME280;39400;49.744;7.012;2023-04-27T04:31:11;96013.81;;;2.75;100.00
33454;BME280;39400;49.744;7.012;2023-04-27T04:33:37;96023.28;;;2.94;100.00
33454;BME280;39400;49.744;7.012;2023-04-27T04:36:03;96018.06;;;3.01;100.00
33454;BME280;39400;49.744;7.012;2023-04-27T04:38:29;96030.03;;;3.12;100.00
33454;BME280;39400;49.744;7.012;2023-04-27T04:40:54;96030.47;;;3.26;100.00
33454;BME280;39400;49.744;7.012;2023-04-27T04:43:20;96030.09;;;3.28;100.00
33454;BME280;39400;49.744;7.012;2023-04-27T04:45:46;96029.31;;;3.27;100.00
33454;BME280;39400;49.744;7.012;2023-04-27T04:48:13;96024.81;;;3.19;100.00
33454;BME280;39400;49.744;7.012;2023-04-27T04:50:39;96022.31;;;3.14;100.00
33454;BME280;39400;49.744;7.012;2023-04-27T04:53:04;96023.00;;;3.11;100.00
33454;BME280;39400;49.744;7.012;2023-04-27T04:55:32;96029.38;;;3.03;100.00
33454;BME280;39400;49.744;7.012;2023-04-27T04:57:57;96025.09;;;2.90;100.00
33454;BME280;39400;49.744;7.012;2023-04-27T05:00:23;96029.16;;;2.96;100.00
33454;BME280;39400;49.744;7.012;2023-04-27T05:02:48;96029.84;;;3.05;100.00
33454;BME280;39400;49.744;7.012;2023-04-27T05:05:13;96035.03;;;3.10;100.00
33454;BME280;39400;49.744;7.012;2023-04-27T05:07:39;96042.00;;;3.23;100.00
33454;BME280;39400;49.744;7.012;2023-04-27T05:10:04;96043.78;;;3.31;100.00
33454;BME280;39400;49.744;7.012;2023-04-27T05:12:29;96042.88;;;3.40;100.00
33454;BME280;39400;49.744;7.012;2023-04-27T05:14:55;96046.31;;;3.52;100.00
33454;BME280;39400;49.744;7.012;2023-04-27T05:17:20;96049.72;;;3.77;100.00
33454;BME280;39400;49.744;7.012;2023-04-27T05:19:45;96049.34;;;4.07;100.00
33454;BME280;39400;49.744;7.012;2023-04-27T05:22:11;96056.69;;;4.35;99.04
33454;BME280;39400;49.744;7.012;2023-04-27T05:24:36;96053.25;;;4.38;98.40
33454;BME280;39400;49.744;7.012;2023-04-27T05:27:01;96046.41;;;4.28;99.41
33454;BME280;39400;49.744;7.012;2023-04-27T05:29:27;96055.97;;;4.38;100.00
33454;BME280;39400;49.744;7.012;2023-04-27T05:31:52;96059.31;;;4.47;100.00
33454;BME280;39400;49.744;7.012;2023-04-27T05:34:18;96050.88;;;4.52;100.00
33454;BME280;39400;49.744;7.012;2023-04-27T05:36:43;96058.97;;;4.64;100.00
33454;BME280;39400;49.744;7.012;2023-04-27T05:39:08;96055.78;;;4.62;100.00
33454;BME280;39400;49.744;7.012;2023-04-27T05:41:34;96051.38;;;4.73;100.00
33454;BME280;39400;49.744;7.012;2023-04-27T05:43:59;96060.88;;;4.80;100.00
33454;BME280;39400;49.744;7.012;2023-04-27T05:46:24;96058.41;;;4.74;99.84
33454;BME280;39400;49.744;7.012;2023-04-27T05:48:50;96065.47;;;4.75;99.90
33454;BME280;39400;49.744;7.012;2023-04-27T05:51:15;96061.59;;;4.76;100.00
33454;BME280;39400;49.744;7.012;2023-04-27T05:53:40;96059.38;;;4.66;100.00
33454;BME280;39400;49.744;7.012;2023-04-27T05:56:06;96059.56;;;4.73;100.00
33454;BME280;39400;49.744;7.012;2023-04-27T05:58:32;96056.75;;;4.70;100.00
33454;BME280;39400;49.744;7.012;2023-04-27T06:00:58;96061.88;;;4.71;100.00
33454;BME280;39400;49.744;7.012;2023-04-27T06:03:23;96065.00;;;4.73;100.00
33454;BME280;39400;49.744;7.012;2023-04-27T06:05:55;96068.50;;;4.74;100.00
33454;BME280;39400;49.744;7.012;2023-04-27T06:08:21;96065.28;;;4.68;100.00
33454;BME280;39400;49.744;7.012;2023-04-27T06:10:47;96077.47;;;4.74;100.00
33454;BME280;39400;49.744;7.012;2023-04-27T06:13:12;96070.53;;;4.93;100.00
33454;BME280;39400;49.744;7.012;2023-04-27T06:15:38;96072.81;;;4.91;100.00
33454;BME280;39400;49.744;7.012;2023-04-27T06:18:03;96085.47;;;4.99;100.00
33454;BME280;39400;49.744;7.012;2023-04-27T06:20:28;96079.56;;;4.97;100.00
33454;BME280;39400;49.744;7.012;2023-04-27T06:22:54;96080.72;;;4.96;99.96
33454;BME280;39400;49.744;7.012;2023-04-27T06:25:19;96086.50;;;5.10;100.00
33454;BME280;39400;49.744;7.012;2023-04-27T06:27:44;96074.50;;;5.31;99.25
33454;BME280;39400;49.744;7.012;2023-04-27T06:30:10;96077.09;;;5.43;99.01
33454;BME280;39400;49.744;7.012;2023-04-27T06:32:35;96076.88;;;5.71;97.71
33454;BME280;39400;49.744;7.012;2023-04-27T06:35:01;96076.38;;;5.85;97.18
33454;BME280;39400;49.744;7.012;2023-04-27T06:37:26;96078.16;;;5.93;96.13
33454;BME280;39400;49.744;7.012;2023-04-27T06:39:51;96080.72;;;6.05;96.20
33454;BME280;39400;49.744;7.012;2023-04-27T06:42:17;96079.72;;;6.36;95.27
33454;BME280;39400;49.744;7.012;2023-04-27T06:44:42;96080.03;;;6.54;94.85
33454;BME280;39400;49.744;7.012;2023-04-27T06:47:07;96075.66;;;6.73;96.16
33454;BME280;39400;49.744;7.012;2023-04-27T06:49:33;96071.16;;;6.84;94.96
33454;BME280;39400;49.744;7.012;2023-04-27T06:52:01;96086.63;;;7.26;93.40
33454;BME280;39400;49.744;7.012;2023-04-27T06:54:26;96082.06;;;7.33;92.00
33454;BME280;39400;49.744;7.012;2023-04-27T06:56:52;96076.72;;;7.44;90.25
33454;BME280;39400;49.744;7.012;2023-04-27T06:59:17;96075.59;;;7.45;91.38
33454;BME280;39400;49.744;7.012;2023-04-27T07:01:42;96068.63;;;7.51;89.88
33454;BME280;39400;49.744;7.012;2023-04-27T07:04:08;96078.03;;;7.84;89.12
33454;BME280;39400;49.744;7.012;2023-04-27T07:06:33;96074.09;;;7.81;88.71
33454;BME280;39400;49.744;7.012;2023-04-27T07:08:59;96074.78;;;7.75;90.93
33454;BME280;39400;49.744;7.012;2023-04-27T07:11:24;96072.56;;;7.84;88.68
33454;BME280;39400;49.744;7.012;2023-04-27T07:13:49;96069.22;;;7.98;85.48
33454;BME280;39400;49.744;7.012;2023-04-27T07:16:15;96069.75;;;8.10;85.64
33454;BME280;39400;49.744;7.012;2023-04-27T07:18:41;96070.78;;;8.36;83.61
33454;BME280;39400;49.744;7.012;2023-04-27T07:21:06;96060.59;;;8.33;81.49
33454;BME280;39400;49.744;7.012;2023-04-27T07:23:32;96073.03;;;8.27;81.54
33454;BME280;39400;49.744;7.012;2023-04-27T07:25:57;96074.81;;;8.42;82.20
33454;BME280;39400;49.744;7.012;2023-04-27T07:28:23;96072.47;;;8.44;80.51
33454;BME280;39400;49.744;7.012;2023-04-27T07:30:48;96069.22;;;8.35;79.75
33454;BME280;39400;49.744;7.012;2023-04-27T07:33:13;96074.06;;;8.45;79.09
33454;BME280;39400;49.744;7.012;2023-04-27T07:35:39;96076.44;;;8.50;80.80
33454;BME280;39400;49.744;7.012;2023-04-27T07:38:04;96080.53;;;8.71;80.56
33454;BME280;39400;49.744;7.012;2023-04-27T07:40:30;96078.22;;;8.73;80.27
33454;BME280;39400;49.744;7.012;2023-04-27T07:42:55;96075.06;;;9.19;78.77
33454;BME280;39400;49.744;7.012;2023-04-27T07:45:21;96073.63;;;9.43;76.27
33454;BME280;39400;49.744;7.012;2023-04-27T07:47:47;96070.84;;;9.32;75.41
33454;BME280;39400;49.744;7.012;2023-04-27T07:50:12;96074.34;;;9.29;75.98
33454;BME280;39400;49.744;7.012;2023-04-27T07:52:38;96074.88;;;9.52;77.29
33454;BME280;39400;49.744;7.012;2023-04-27T07:55:03;96077.28;;;9.65;78.25
33454;BME280;39400;49.744;7.012;2023-04-27T07:57:29;96077.34;;;9.75;78.11
33454;BME280;39400;49.744;7.012;2023-04-27T07:59:55;96079.00;;;9.94;75.81
33454;BME280;39400;49.744;7.012;2023-04-27T08:02:21;96077.53;;;10.22;75.27
33454;BME280;39400;49.744;7.012;2023-04-27T08:04:46;96075.94;;;10.17;76.45
33454;BME280;39400;49.744;7.012;2023-04-27T08:07:13;96083.84;;;10.26;74.47
33454;BME280;39400;49.744;7.012;2023-04-27T08:09:40;96083.47;;;10.31;75.35
33454;BME280;39400;49.744;7.012;2023-04-27T08:12:06;96078.31;;;10.19;74.72
33454;BME280;39400;49.744;7.012;2023-04-27T08:14:33;96081.09;;;10.26;72.82
33454;BME280;39400;49.744;7.012;2023-04-27T08:16:58;96077.53;;;10.22;72.41
33454;BME280;39400;49.744;7.012;2023-04-27T08:19:24;96068.13;;;10.27;73.72
33454;BME280;39400;49.744;7.012;2023-04-27T08:21:49;96068.56;;;10.39;70.28
33454;BME280;39400;49.744;7.012;2023-04-27T08:24:15;96067.38;;;10.40;69.97
33454;BME280;39400;49.744;7.012;2023-04-27T08:26:40;96068.19;;;10.44;71.82
33454;BME280;39400;49.744;7.012;2023-04-27T08:29:05;96070.16;;;10.51;71.75
33454;BME280;39400;49.744;7.012;2023-04-27T08:31:31;96068.97;;;10.63;72.32
33454;BME280;39400;49.744;7.012;2023-04-27T08:33:56;96066.66;;;10.86;72.62
33454;BME280;39400;49.744;7.012;2023-04-27T08:36:22;96063.13;;;10.82;70.19
33454;BME280;39400;49.744;7.012;2023-04-27T08:38:47;96063.13;;;10.89;70.62
33454;BME280;39400;49.744;7.012;2023-04-27T08:41:20;96055.66;;;10.83;71.18
33454;BME280;39400;49.744;7.012;2023-04-27T08:43:46;96059.59;;;11.07;71.48
33454;BME280;39400;49.744;7.012;2023-04-27T08:46:12;96061.94;;;10.90;70.54
33454;BME280;39400;49.744;7.012;2023-04-27T08:48:37;96054.09;;;10.82;72.22
33454;BME280;39400;49.744;7.012;2023-04-27T08:51:07;96058.41;;;11.01;70.79
33454;BME280;39400;49.744;7.012;2023-04-27T08:53:33;96045.41;;;11.08;72.39
33454;BME280;39400;49.744;7.012;2023-04-27T08:55:59;96053.28;;;11.24;72.88
33454;BME280;39400;49.744;7.012;2023-04-27T08:58:37;96055.63;;;11.29;73.74
33454;BME280;39400;49.744;7.012;2023-04-27T09:01:06;96064.22;;;11.53;72.42
33454;BME280;39400;49.744;7.012;2023-04-27T09:03:31;96059.50;;;11.57;72.33
33454;BME280;39400;49.744;7.012;2023-04-27T09:05:56;96061.09;;;11.47;71.12
33454;BME280;39400;49.744;7.012;2023-04-27T09:08:22;96061.09;;;11.58;73.57
33454;BME280;39400;49.744;7.012;2023-04-27T09:10:51;96064.09;;;12.03;67.10
33454;BME280;39400;49.744;7.012;2023-04-27T09:13:16;96055.50;;;11.86;70.88
33454;BME280;39400;49.744;7.012;2023-04-27T09:15:44;96066.13;;;11.92;67.09
33454;BME280;39400;49.744;7.012;2023-04-27T09:18:22;96063.78;;;11.72;67.96
33454;BME280;39400;49.744;7.012;2023-04-27T09:20:49;96064.19;;;11.74;68.39
33454;BME280;39400;49.744;7.012;2023-04-27T09:23:47;96066.13;;;11.92;71.39
33454;BME280;39400;49.744;7.012;2023-04-27T09:26:19;96065.69;;;12.04;72.28
33454;BME280;39400;49.744;7.012;2023-04-27T09:28:47;96067.16;;;12.26;72.51
33454;BME280;39400;49.744;7.012;2023-04-27T09:31:13;96059.94;;;12.43;70.41
33454;BME280;39400;49.744;7.012;2023-04-27T09:33:38;96061.66;;;12.26;69.23
33454;BME280;39400;49.744;7.012;2023-04-27T09:36:04;96067.06;;;12.41;71.58
33454;BME280;39400;49.744;7.012;2023-04-27T09:38:30;96077.16;;;12.69;69.47
33454;BME280;39400;49.744;7.012;2023-04-27T09:40:58;96071.59;;;12.72;64.47
33454;BME280;39400;49.744;7.012;2023-04-27T09:43:24;96074.09;;;12.52;67.38
33454;BME280;39400;49.744;7.012;2023-04-27T09:45:50;96059.69;;;12.86;64.43
33454;BME280;39400;49.744;7.012;2023-04-27T09:48:16;96066.22;;;13.06;64.38
33454;BME280;39400;49.744;7.012;2023-04-27T09:50:43;96067.22;;;12.78;63.56
33454;BME280;39400;49.744;7.012;2023-04-27T09:53:14;96055.25;;;12.44;63.36
33454;BME280;39400;49.744;7.012;2023-04-27T09:55:43;96064.59;;;12.57;65.70
33454;BME280;39400;49.744;7.012;2023-04-27T10:01:50;96063.38;;;13.17;69.33
33454;BME280;39400;49.744;7.012;2023-04-27T10:04:42;96064.53;;;13.65;68.68
33454;BME280;39400;49.744;7.012;2023-04-27T10:07:11;96069.25;;;13.64;66.35
33454;BME280;39400;49.744;7.012;2023-04-27T10:09:46;96066.84;;;13.70;64.47
33454;BME280;39400;49.744;7.012;2023-04-27T10:14:54;96070.06;;;13.61;62.56
33454;BME280;39400;49.744;7.012;2023-04-27T10:17:34;96063.06;;;13.53;65.51
33454;BME280;39400;49.744;7.012;2023-04-27T10:20:02;96065.78;;;13.56;64.85
33454;BME280;39400;49.744;7.012;2023-04-27T10:22:45;96069.19;;;13.71;67.84
33454;BME280;39400;49.744;7.012;2023-04-27T10:27:38;96072.66;;;14.13;64.17
33454;BME280;39400;49.744;7.012;2023-04-27T10:30:11;96064.00;;;14.11;65.35
33454;BME280;39400;49.744;7.012;2023-04-27T10:32:36;96069.63;;;14.04;60.87
33454;BME280;39400;49.744;7.012;2023-04-27T10:35:03;96067.97;;;14.10;62.88
33454;BME280;39400;49.744;7.012;2023-04-27T10:37:39;96065.81;;;13.91;60.61
33454;BME280;39400;49.744;7.012;2023-04-27T10:40:09;96070.66;;;13.83;62.72
33454;BME280;39400;49.744;7.012;2023-04-27T10:42:35;96069.22;;;13.68;63.64
33454;BME280;39400;49.744;7.012;2023-04-27T10:45:01;96062.13;;;13.67;62.65
33454;BME280;39400;49.744;7.012;2023-04-27T10:47:38;96055.09;;;13.62;61.86
33454;BME280;39400;49.744;7.012;2023-04-27T10:50:05;96049.47;;;13.69;61.87
33454;BME280;39400;49.744;7.012;2023-04-27T10:52:30;96050.25;;;13.70;62.23
33454;BME280;39400;49.744;7.012;2023-04-27T10:54:56;96044.78;;;13.66;61.90
33454;BME280;39400;49.744;7.012;2023-04-27T10:57:21;96039.91;;;13.77;60.90
33454;BME280;39400;49.744;7.012;2023-04-27T10:59:52;96038.25;;;13.84;61.30
33454;BME280;39400;49.744;7.012;2023-04-27T11:02:24;96032.22;;;14.23;59.23
33454;BME280;39400;49.744;7.012;2023-04-27T11:04:50;96032.47;;;14.05;58.90
33454;BME280;39400;49.744;7.012;2023-04-27T11:07:25;96037.53;;;13.79;60.07
33454;BME280;39400;49.744;7.012;2023-04-27T11:09:51;96034.41;;;14.08;59.26
33454;BME280;39400;49.744;7.012;2023-04-27T11:12:16;96038.72;;;14.09;60.32
33454;BME280;39400;49.744;7.012;2023-04-27T11:14:41;96031.34;;;14.30;61.48
33454;BME280;39400;49.744;7.012;2023-04-27T11:17:07;96029.53;;;14.50;59.90
33454;BME280;39400;49.744;7.012;2023-04-27T11:19:43;96031.16;;;14.44;58.41
33454;BME280;39400;49.744;7.012;2023-04-27T11:22:09;96039.66;;;14.60;58.67
33454;BME280;39400;49.744;7.012;2023-04-27T11:24:34;96026.38;;;14.48;57.56
33454;BME280;39400;49.744;7.012;2023-04-27T11:27:00;96027.34;;;14.34;57.94
33454;BME280;39400;49.744;7.012;2023-04-27T11:29:25;96027.13;;;14.21;59.32
33454;BME280;39400;49.744;7.012;2023-04-27T11:32:01;96017.47;;;14.64;60.40
33454;BME280;39400;49.744;7.012;2023-04-27T11:34:26;96019.81;;;14.65;58.87
33454;BME280;39400;49.744;7.012;2023-04-27T11:36:59;96025.34;;;14.65;57.83
33454;BME280;39400;49.744;7.012;2023-04-27T11:39:32;96017.06;;;14.35;58.51
33454;BME280;39400;49.744;7.012;2023-04-27T11:42:16;96020.75;;;14.55;58.79
33454;BME280;39400;49.744;7.012;2023-04-27T11:44:58;96011.97;;;15.11;57.91
33454;BME280;39400;49.744;7.012;2023-04-27T11:47:26;96012.75;;;15.11;56.22
33454;BME280;39400;49.744;7.012;2023-04-27T11:49:58;96008.22;;;15.21;59.26
33454;BME280;39400;49.744;7.012;2023-04-27T11:52:30;96014.69;;;15.34;57.37
33454;BME280;39400;49.744;7.012;2023-04-27T11:54:56;96024.16;;;15.13;57.42
33454;BME280;39400;49.744;7.012;2023-04-27T11:57:33;96014.69;;;15.14;59.67
33454;BME280;39400;49.744;7.012;2023-04-27T12:00:00;96016.09;;;15.22;61.17
33454;BME280;39400;49.744;7.012;2023-04-27T12:02:27;96010.09;;;15.28;60.74
33454;BME280;39400;49.744;7.012;2023-04-27T12:04:52;96014.06;;;15.27;59.08
33454;BME280;39400;49.744;7.012;2023-04-27T12:07:18;96009.97;;;15.35;57.76
33454;BME280;39400;49.744;7.012;2023-04-27T12:09:44;96004.28;;;15.42;59.70
33454;BME280;39400;49.744;7.012;2023-04-27T12:12:10;95997.88;;;15.68;58.37
33454;BME280;39400;49.744;7.012;2023-04-27T12:14:35;96000.34;;;15.83;58.54
33454;BME280;39400;49.744;7.012;2023-04-27T12:17:01;95993.75;;;15.77;56.57
33454;BME280;39400;49.744;7.012;2023-04-27T12:19:27;95987.22;;;15.87;57.62
33454;BME280;39400;49.744;7.012;2023-04-27T12:21:52;95989.69;;;16.01;54.94
33454;BME280;39400;49.744;7.012;2023-04-27T12:24:18;95993.19;;;15.85;53.79
33454;BME280;39400;49.744;7.012;2023-04-27T12:26:43;95987.81;;;15.35;55.03
33454;BME280;39400;49.744;7.012;2023-04-27T12:29:09;95987.22;;;15.43;55.24
33454;BME280;39400;49.744;7.012;2023-04-27T12:31:34;95986.78;;;15.68;54.33
33454;BME280;39400;49.744;7.012;2023-04-27T12:34:00;95985.94;;;15.48;55.23
33454;BME280;39400;49.744;7.012;2023-04-27T12:36:25;95989.78;;;15.54;56.69
33454;BME280;39400;49.744;7.012;2023-04-27T12:38:53;95994.16;;;15.75;55.18
33454;BME280;39400;49.744;7.012;2023-04-27T12:41:18;95995.69;;;15.80;54.84
33454;BME280;39400;49.744;7.012;2023-04-27T12:43:44;96002.22;;;15.69;54.86
33454;BME280;39400;49.744;7.012;2023-04-27T12:46:09;95994.19;;;15.52;55.36
33454;BME280;39400;49.744;7.012;2023-04-27T12:48:34;95991.47;;;15.72;57.03
33454;BME280;39400;49.744;7.012;2023-04-27T12:51:00;96004.19;;;15.89;56.06
33454;BME280;39400;49.744;7.012;2023-04-27T12:53:27;95993.41;;;15.75;56.02
33454;BME280;39400;49.744;7.012;2023-04-27T12:55:52;95998.47;;;15.80;54.06
33454;BME280;39400;49.744;7.012;2023-04-27T12:58:17;96005.97;;;15.79;52.93
33454;BME280;39400;49.744;7.012;2023-04-27T13:00:43;95994.34;;;15.64;55.01
33454;BME280;39400;49.744;7.012;2023-04-27T13:03:08;96004.16;;;15.49;53.35
33454;BME280;39400;49.744;7.012;2023-04-27T13:05:34;96002.00;;;15.37;53.20
33454;BME280;39400;49.744;7.012;2023-04-27T13:07:59;95989.22;;;15.43;56.60